sensor_id;sensor_type;location;lat;lon;timestamp;temperature;humidity
32476;DHT22;18929;48.008;10.882;2022-09-12T00:00:13;15.90;99.90
32476;DHT22;18929;48.008;10.882;2022-09-12T00:02:42;15.60;99.90
32476;DHT22;18929;48.008;10.882;2022-09-12T00:05:09;14.90;99.90
32476;DHT22;18929;48.008;10.882;2022-09-12T00:07:37;15.20;99.90
32476;DHT22;18929;48.008;10.882;2022-09-12T00:10:04;15.10;99.90
32476;DHT22;18929;48.008;10.882;2022-09-12T00:12:32;15.20;99.90
32476;DHT22;18929;48.008;10.882;2022-09-12T00:14:59;15.70;99.90
32476;DHT22;18929;48.008;10.882;2022-09-12T00:17:26;15.80;99.90
32476;DHT22;18929;48.008;10.882;2022-09-12T00:19:54;16.00;99.90
32476;DHT22;18929;48.008;10.882;2022-09-12T00:22:21;15.60;99.90
32476;DHT22;18929;48.008;10.882;2022-09-12T00:24:48;15.60;99.90
32476;DHT22;18929;48.008;10.882;2022-09-12T00:27:15;15.00;99.90
32476;DHT22;18929;48.008;10.882;2022-09-12T00:29:42;15.10;99.90
32476;DHT22;18929;48.008;10.882;2022-09-12T00:32:09;15.60;99.90
32476;DHT22;18929;48.008;10.882;2022-09-12T00:34:36;15.80;99.90
32476;DHT22;18929;48.008;10.882;2022-09-12T00:37:04;15.90;99.90
32476;DHT22;18929;48.008;10.882;2022-09-12T00:39:31;15.80;99.90
32476;DHT22;18929;48.008;10.882;2022-09-12T00:41:58;15.90;99.90
32476;DHT22;18929;48.008;10.882;2022-09-12T00:44:47;15.90;99.90
32476;DHT22;18929;48.008;10.882;2022-09-12T00:47:23;15.80;99.90
32476;DHT22;18929;48.008;10.882;2022-09-12T00:49:56;15.70;99.90
32476;DHT22;18929;48.008;10.882;2022-09-12T00:52:29;15.80;99.90
32476;DHT22;18929;48.008;10.882;2022-09-12T00:55:03;15.70;99.90
32476;DHT22;18929;48.008;10.882;2022-09-12T00:57:35;15.70;99.90
32476;DHT22;18929;48.008;10.882;2022-09-12T01:00:07;15.80;99.90
32476;DHT22;18929;48.008;10.882;2022-09-12T01:02:38;15.60;99.90
32476;DHT22;18929;48.008;10.882;2022-09-12T01:05:07;15.80;99.90
32476;DHT22;18929;48.008;10.882;2022-09-12T01:07:36;15.80;99.90
32476;DHT22;18929;48.008;10.882;2022-09-12T01:10:04;15.80;99.90
32476;DHT22;18929;48.008;10.882;2022-09-12T01:12:33;15.70;99.90
32476;DHT22;18929;48.008;10.882;2022-09-12T01:15:00;15.50;99.90
32476;DHT22;18929;48.008;10.882;2022-09-12T01:17:31;15.70;99.90
32476;DHT22;18929;48.008;10.882;2022-09-12T01:20:33;15.70;99.90
32476;DHT22;18929;48.008;10.882;2022-09-12T01:29:40;14.90;99.90
32476;DHT22;18929;48.008;10.882;2022-09-12T01:32:16;15.30;99.90
32476;DHT22;18929;48.008;10.882;2022-09-12T01:34:52;15.40;99.90
32476;DHT22;18929;48.008;10.882;2022-09-12T01:37:25;15.50;99.90
32476;DHT22;18929;48.008;10.882;2022-09-12T01:40:00;15.50;99.90
32476;DHT22;18929;48.008;10.882;2022-09-12T01:42:33;15.60;99.90
32476;DHT22;18929;48.008;10.882;2022-09-12T01:45:11;15.60;99.90
32476;DHT22;18929;48.008;10.882;2022-09-12T01:47:44;15.60;99.90
32476;DHT22;18929;48.008;10.882;2022-09-12T01:50:15;15.60;99.90
32476;DHT22;18929;48.008;10.882;2022-09-12T01:52:47;15.50;99.90
32476;DHT22;18929;48.008;10.882;2022-09-12T01:55:17;15.40;99.90
32476;DHT22;18929;48.008;10.882;2022-09-12T01:57:50;15.40;99.90
32476;DHT22;18929;48.008;10.882;2022-09-12T02:00:19;15.30;99.90
32476;DHT22;18929;48.008;10.882;2022-09-12T02:02:50;15.30;99.90
32476;DHT22;18929;48.008;10.882;2022-09-12T02:05:22;15.00;99.90
32476;DHT22;18929;48.008;10.882;2022-09-12T02:07:52;14.90;99.90
32476;DHT22;18929;48.008;10.882;2022-09-12T02:10:24;15.30;99.90
32476;DHT22;18929;48.008;10.882;2022-09-12T02:12:53;15.40;99.90
32476;DHT22;18929;48.008;10.882;2022-09-12T02:15:23;15.30;99.90
32476;DHT22;18929;48.008;10.882;2022-09-12T02:17:54;15.30;99.90
32476;DHT22;18929;48.008;10.882;2022-09-12T02:20:24;15.00;99.90
32476;DHT22;18929;48.008;10.882;2022-09-12T02:22:54;14.60;99.90
32476;DHT22;18929;48.008;10.882;2022-09-12T02:25:24;14.90;99.90
32476;DHT22;18929;48.008;10.882;2022-09-12T02:27:55;15.10;99.90
32476;DHT22;18929;48.008;10.882;2022-09-12T02:30:24;15.20;99.90
32476;DHT22;18929;48.008;10.882;2022-09-12T02:33:00;15.20;99.90
32476;DHT22;18929;48.008;10.882;2022-09-12T02:35:33;15.20;99.90
32476;DHT22;18929;48.008;10.882;2022-09-12T02:38:04;15.20;99.90
32476;DHT22;18929;48.008;10.882;2022-09-12T02:40:33;15.20;99.90
32476;DHT22;18929;48.008;10.882;2022-09-12T02:43:00;15.10;99.90
32476;DHT22;18929;48.008;10.882;2022-09-12T02:45:29;14.70;99.90
32476;DHT22;18929;48.008;10.882;2022-09-12T02:48:02;15.10;99.90
32476;DHT22;18929;48.008;10.882;2022-09-12T02:50:31;15.10;99.90
32476;DHT22;18929;48.008;10.882;2022-09-12T02:52:59;15.10;99.90
32476;DHT22;18929;48.008;10.882;2022-09-12T02:55:30;14.90;99.90
32476;DHT22;18929;48.008;10.882;2022-09-12T02:57:59;14.90;99.90
32476;DHT22;18929;48.008;10.882;2022-09-12T03:00:29;14.90;99.90
32476;DHT22;18929;48.008;10.882;2022-09-12T03:03:12;14.90;99.90
32476;DHT22;18929;48.008;10.882;2022-09-12T03:05:46;14.70;99.90
32476;DHT22;18929;48.008;10.882;2022-09-12T03:08:35;14.80;99.90
32476;DHT22;18929;48.008;10.882;2022-09-12T03:11:14;14.90;99.90
32476;DHT22;18929;48.008;10.882;2022-09-12T03:13:51;15.00;99.90
32476;DHT22;18929;48.008;10.882;2022-09-12T03:16:26;14.80;99.90
32476;DHT22;18929;48.008;10.882;2022-09-12T03:19:04;15.00;99.90
32476;DHT22;18929;48.008;10.882;2022-09-12T03:21:42;15.00;99.90
32476;DHT22;18929;48.008;10.882;2022-09-12T03:24:17;15.10;99.90
32476;DHT22;18929;48.008;10.882;2022-09-12T03:26:49;15.00;99.90
32476;DHT22;18929;48.008;10.882;2022-09-12T03:29:19;14.90;99.90
32476;DHT22;18929;48.008;10.882;2022-09-12T03:31:49;14.90;99.90
32476;DHT22;18929;48.008;10.882;2022-09-12T03:34:18;14.90;99.90
32476;DHT22;18929;48.008;10.882;2022-09-12T03:36:46;14.80;99.90
32476;DHT22;18929;48.008;10.882;2022-09-12T03:39:13;14.30;99.90
32476;DHT22;18929;48.008;10.882;2022-09-12T03:41:40;14.60;99.90
32476;DHT22;18929;48.008;10.882;2022-09-12T03:44:07;14.70;99.90
32476;DHT22;18929;48.008;10.882;2022-09-12T03:46:34;14.70;99.90
32476;DHT22;18929;48.008;10.882;2022-09-12T03:49:02;14.70;99.90
32476;DHT22;18929;48.008;10.882;2022-09-12T03:54:50;14.70;99.90
32476;DHT22;18929;48.008;10.882;2022-09-12T03:57:17;14.70;99.90
32476;DHT22;18929;48.008;10.882;2022-09-12T03:59:44;14.80;99.90
32476;DHT22;18929;48.008;10.882;2022-09-12T04:02:11;14.70;99.90
32476;DHT22;18929;48.008;10.882;2022-09-12T04:04:40;14.60;99.90
32476;DHT22;18929;48.008;10.882;2022-09-12T04:07:08;14.60;99.90
32476;DHT22;18929;48.008;10.882;2022-09-12T04:09:35;14.60;99.90
32476;DHT22;18929;48.008;10.882;2022-09-12T04:12:04;14.60;99.90
32476;DHT22;18929;48.008;10.882;2022-09-12T04:14:31;14.60;99.90
32476;DHT22;18929;48.008;10.882;2022-09-12T04:16:58;14.60;99.90
32476;DHT22;18929;48.008;10.882;2022-09-12T04:19:25;14.60;99.90
32476;DHT22;18929;48.008;10.882;2022-09-12T04:21:52;14.50;99.90
32476;DHT22;18929;48.008;10.882;2022-09-12T04:24:19;14.50;99.90
32476;DHT22;18929;48.008;10.882;2022-09-12T04:26:46;13.70;99.90
32476;DHT22;18929;48.008;10.882;2022-09-12T04:29:15;14.20;99.90
32476;DHT22;18929;48.008;10.882;2022-09-12T04:31:42;13.60;99.90
32476;DHT22;18929;48.008;10.882;2022-09-12T04:34:09;13.90;99.90
32476;DHT22;18929;48.008;10.882;2022-09-12T04:36:36;12.60;99.90
32476;DHT22;18929;48.008;10.882;2022-09-12T04:39:04;13.10;99.90
32476;DHT22;18929;48.008;10.882;2022-09-12T04:41:34;13.90;99.90
32476;DHT22;18929;48.008;10.882;2022-09-12T04:44:03;14.20;99.90
32476;DHT22;18929;48.008;10.882;2022-09-12T04:46:35;14.30;99.90
32476;DHT22;18929;48.008;10.882;2022-09-12T04:49:03;14.30;99.90
32476;DHT22;18929;48.008;10.882;2022-09-12T04:51:32;14.30;99.90
32476;DHT22;18929;48.008;10.882;2022-09-12T04:54:02;14.30;99.90
32476;DHT22;18929;48.008;10.882;2022-09-12T04:56:30;14.30;99.90
32476;DHT22;18929;48.008;10.882;2022-09-12T04:58:59;14.30;99.90
32476;DHT22;18929;48.008;10.882;2022-09-12T05:01:26;14.30;99.90
32476;DHT22;18929;48.008;10.882;2022-09-12T05:03:56;14.30;99.90
32476;DHT22;18929;48.008;10.882;2022-09-12T05:06:25;14.30;99.90
32476;DHT22;18929;48.008;10.882;2022-09-12T05:08:53;14.20;99.90
32476;DHT22;18929;48.008;10.882;2022-09-12T05:11:22;13.80;99.90
32476;DHT22;18929;48.008;10.882;2022-09-12T05:13:50;14.10;99.90
32476;DHT22;18929;48.008;10.882;2022-09-12T05:16:18;14.20;99.90
32476;DHT22;18929;48.008;10.882;2022-09-12T05:18:46;13.80;99.90
32476;DHT22;18929;48.008;10.882;2022-09-12T05:21:17;14.10;99.90
32476;DHT22;18929;48.008;10.882;2022-09-12T05:23:44;13.70;99.90
32476;DHT22;18929;48.008;10.882;2022-09-12T05:26:13;14.00;99.90
32476;DHT22;18929;48.008;10.882;2022-09-12T05:28:41;13.30;99.90
32476;DHT22;18929;48.008;10.882;2022-09-12T05:31:12;13.60;99.90
32476;DHT22;18929;48.008;10.882;2022-09-12T05:33:41;13.50;99.90
32476;DHT22;18929;48.008;10.882;2022-09-12T05:36:10;13.80;99.90
32476;DHT22;18929;48.008;10.882;2022-09-12T05:38:39;13.60;99.90
32476;DHT22;18929;48.008;10.882;2022-09-12T05:41:08;13.70;99.90
32476;DHT22;18929;48.008;10.882;2022-09-12T05:43:37;13.80;99.90
32476;DHT22;18929;48.008;10.882;2022-09-12T05:46:06;14.00;99.90
32476;DHT22;18929;48.008;10.882;2022-09-12T05:48:33;14.10;99.90
32476;DHT22;18929;48.008;10.882;2022-09-12T05:51:02;13.90;99.90
32476;DHT22;18929;48.008;10.882;2022-09-12T05:53:30;14.00;99.90
32476;DHT22;18929;48.008;10.882;2022-09-12T05:56:06;13.90;99.90
32476;DHT22;18929;48.008;10.882;2022-09-12T05:58:35;13.80;99.90
32476;DHT22;18929;48.008;10.882;2022-09-12T06:01:07;13.80;99.90
32476;DHT22;18929;48.008;10.882;2022-09-12T06:03:39;13.80;99.90
32476;DHT22;18929;48.008;10.882;2022-09-12T06:06:07;13.80;99.90
32476;DHT22;18929;48.008;10.882;2022-09-12T06:08:34;13.70;99.90
32476;DHT22;18929;48.008;10.882;2022-09-12T06:11:03;13.80;99.90
32476;DHT22;18929;48.008;10.882;2022-09-12T06:13:34;14.00;99.90
32476;DHT22;18929;48.008;10.882;2022-09-12T06:16:03;13.80;99.90
32476;DHT22;18929;48.008;10.882;2022-09-12T06:18:31;13.80;99.90
32476;DHT22;18929;48.008;10.882;2022-09-12T06:21:12;13.70;99.90
32476;DHT22;18929;48.008;10.882;2022-09-12T06:23:40;13.60;99.90
32476;DHT22;18929;48.008;10.882;2022-09-12T06:26:08;13.70;99.90
32476;DHT22;18929;48.008;10.882;2022-09-12T06:28:38;13.70;99.90
32476;DHT22;18929;48.008;10.882;2022-09-12T06:31:07;13.50;99.90
32476;DHT22;18929;48.008;10.882;2022-09-12T06:33:42;13.10;99.90
32476;DHT22;18929;48.008;10.882;2022-09-12T06:36:11;13.70;99.90
32476;DHT22;18929;48.008;10.882;2022-09-12T06:38:38;13.90;99.90
32476;DHT22;18929;48.008;10.882;2022-09-12T06:41:06;13.90;99.90
32476;DHT22;18929;48.008;10.882;2022-09-12T06:43:34;14.00;99.90
32476;DHT22;18929;48.008;10.882;2022-09-12T06:46:02;14.00;99.90
32476;DHT22;18929;48.008;10.882;2022-09-12T06:48:29;13.90;99.90
32476;DHT22;18929;48.008;10.882;2022-09-12T06:50:58;13.90;99.90
32476;DHT22;18929;48.008;10.882;2022-09-12T06:53:26;14.00;99.90
32476;DHT22;18929;48.008;10.882;2022-09-12T06:55:59;13.70;99.90
32476;DHT22;18929;48.008;10.882;2022-09-12T06:58:27;13.60;99.90
32476;DHT22;18929;48.008;10.882;2022-09-12T07:01:01;13.70;99.90
32476;DHT22;18929;48.008;10.882;2022-09-12T07:03:30;13.60;99.90
32476;DHT22;18929;48.008;10.882;2022-09-12T07:06:00;13.70;99.90
32476;DHT22;18929;48.008;10.882;2022-09-12T07:08:31;13.90;99.90
32476;DHT22;18929;48.008;10.882;2022-09-12T07:10:59;13.90;99.90
32476;DHT22;18929;48.008;10.882;2022-09-12T07:13:33;13.90;99.90
32476;DHT22;18929;48.008;10.882;2022-09-12T07:16:02;14.10;99.90
32476;DHT22;18929;48.008;10.882;2022-09-12T07:18:30;13.20;99.90
32476;DHT22;18929;48.008;10.882;2022-09-12T07:20:58;12.90;99.90
32476;DHT22;18929;48.008;10.882;2022-09-12T07:23:26;13.10;99.90
32476;DHT22;18929;48.008;10.882;2022-09-12T07:25:53;12.90;99.90
32476;DHT22;18929;48.008;10.882;2022-09-12T07:28:22;13.00;99.90
32476;DHT22;18929;48.008;10.882;2022-09-12T07:30:49;13.00;99.90
32476;DHT22;18929;48.008;10.882;2022-09-12T07:33:20;13.40;99.90
32476;DHT22;18929;48.008;10.882;2022-09-12T07:35:47;13.80;99.90
32476;DHT22;18929;48.008;10.882;2022-09-12T07:38:14;13.50;99.90
32476;DHT22;18929;48.008;10.882;2022-09-12T07:40:41;13.60;99.90
32476;DHT22;18929;48.008;10.882;2022-09-12T07:43:09;13.70;99.90
32476;DHT22;18929;48.008;10.882;2022-09-12T07:45:36;13.70;99.90
32476;DHT22;18929;48.008;10.882;2022-09-12T07:48:06;13.80;99.90
32476;DHT22;18929;48.008;10.882;2022-09-12T07:50:34;13.90;99.90
32476;DHT22;18929;48.008;10.882;2022-09-12T07:53:02;14.20;99.90
32476;DHT22;18929;48.008;10.882;2022-09-12T07:55:29;14.30;99.90
32476;DHT22;18929;48.008;10.882;2022-09-12T07:57:56;14.40;99.90
32476;DHT22;18929;48.008;10.882;2022-09-12T08:00:23;14.50;99.90
32476;DHT22;18929;48.008;10.882;2022-09-12T08:02:51;14.40;99.90
32476;DHT22;18929;48.008;10.882;2022-09-12T08:05:18;14.40;99.90
32476;DHT22;18929;48.008;10.882;2022-09-12T08:07:46;14.20;99.90
32476;DHT22;18929;48.008;10.882;2022-09-12T08:10:14;14.60;99.90
32476;DHT22;18929;48.008;10.882;2022-09-12T08:12:41;14.80;99.90
32476;DHT22;18929;48.008;10.882;2022-09-12T08:15:09;14.60;99.90
32476;DHT22;18929;48.008;10.882;2022-09-12T08:17:36;14.40;99.90
32476;DHT22;18929;48.008;10.882;2022-09-12T08:20:03;14.60;99.90
32476;DHT22;18929;48.008;10.882;2022-09-12T08:22:31;14.80;99.90
32476;DHT22;18929;48.008;10.882;2022-09-12T08:24:59;14.90;99.90
32476;DHT22;18929;48.008;10.882;2022-09-12T08:27:26;15.20;99.90
32476;DHT22;18929;48.008;10.882;2022-09-12T08:29:53;15.10;99.90
32476;DHT22;18929;48.008;10.882;2022-09-12T08:32:20;14.70;99.90
32476;DHT22;18929;48.008;10.882;2022-09-12T08:34:47;14.90;99.90
32476;DHT22;18929;48.008;10.882;2022-09-12T08:37:14;15.20;99.90
32476;DHT22;18929;48.008;10.882;2022-09-12T08:39:43;15.20;99.90
32476;DHT22;18929;48.008;10.882;2022-09-12T08:42:23;15.20;99.90
32476;DHT22;18929;48.008;10.882;2022-09-12T08:45:08;15.30;99.90
32476;DHT22;18929;48.008;10.882;2022-09-12T08:47:42;15.00;99.90
32476;DHT22;18929;48.008;10.882;2022-09-12T08:50:15;15.60;99.90
32476;DHT22;18929;48.008;10.882;2022-09-12T08:52:49;15.60;99.90
32476;DHT22;18929;48.008;10.882;2022-09-12T08:55:36;15.10;99.90
32476;DHT22;18929;48.008;10.882;2022-09-12T08:58:12;16.10;99.90
32476;DHT22;18929;48.008;10.882;2022-09-12T09:00:46;16.00;99.90
32476;DHT22;18929;48.008;10.882;2022-09-12T09:03:47;15.70;99.90
32476;DHT22;18929;48.008;10.882;2022-09-12T09:06:42;16.30;99.90
32476;DHT22;18929;48.008;10.882;2022-09-12T09:09:15;16.70;99.90
32476;DHT22;18929;48.008;10.882;2022-09-12T09:11:55;16.50;99.90
32476;DHT22;18929;48.008;10.882;2022-09-12T09:14:41;15.60;99.90
32476;DHT22;18929;48.008;10.882;2022-09-12T09:17:20;14.70;99.90
32476;DHT22;18929;48.008;10.882;2022-09-12T09:19:54;15.00;99.90
32476;DHT22;18929;48.008;10.882;2022-09-12T09:22:30;14.50;99.90
32476;DHT22;18929;48.008;10.882;2022-09-12T09:25:04;14.30;99.90
32476;DHT22;18929;48.008;10.882;2022-09-12T09:27:36;16.30;99.90
32476;DHT22;18929;48.008;10.882;2022-09-12T09:30:07;16.70;99.90
32476;DHT22;18929;48.008;10.882;2022-09-12T09:32:40;16.30;99.90
32476;DHT22;18929;48.008;10.882;2022-09-12T09:35:15;16.50;99.90
32476;DHT22;18929;48.008;10.882;2022-09-12T09:38:00;15.80;99.90
32476;DHT22;18929;48.008;10.882;2022-09-12T09:40:35;16.30;99.90
32476;DHT22;18929;48.008;10.882;2022-09-12T09:43:14;17.10;99.90
32476;DHT22;18929;48.008;10.882;2022-09-12T09:45:45;17.10;99.90
32476;DHT22;18929;48.008;10.882;2022-09-12T09:48:16;17.40;99.90
32476;DHT22;18929;48.008;10.882;2022-09-12T09:50:45;17.10;99.90
32476;DHT22;18929;48.008;10.882;2022-09-12T09:53:25;17.10;99.90
32476;DHT22;18929;48.008;10.882;2022-09-12T09:55:54;17.10;99.90
32476;DHT22;18929;48.008;10.882;2022-09-12T09:58:32;16.70;99.90
32476;DHT22;18929;48.008;10.882;2022-09-12T10:01:02;17.70;99.90
32476;DHT22;18929;48.008;10.882;2022-09-12T10:03:32;17.50;99.90
32476;DHT22;18929;48.008;10.882;2022-09-12T10:06:04;17.60;99.90
32476;DHT22;18929;48.008;10.882;2022-09-12T10:08:33;17.70;99.90
32476;DHT22;18929;48.008;10.882;2022-09-12T10:11:04;17.90;99.90
32476;DHT22;18929;48.008;10.882;2022-09-12T10:13:35;17.60;99.90
32476;DHT22;18929;48.008;10.882;2022-09-12T10:16:15;17.30;99.90
32476;DHT22;18929;48.008;10.882;2022-09-12T10:18:43;17.30;99.90
32476;DHT22;18929;48.008;10.882;2022-09-12T10:21:15;17.00;99.90
32476;DHT22;18929;48.008;10.882;2022-09-12T10:23:44;17.90;99.90
32476;DHT22;18929;48.008;10.882;2022-09-12T10:26:14;18.20;99.90
32476;DHT22;18929;48.008;10.882;2022-09-12T10:28:46;18.00;99.90
32476;DHT22;18929;48.008;10.882;2022-09-12T10:31:24;17.90;99.90
32476;DHT22;18929;48.008;10.882;2022-09-12T10:33:55;18.40;99.90
32476;DHT22;18929;48.008;10.882;2022-09-12T10:36:23;18.00;99.90
32476;DHT22;18929;48.008;10.882;2022-09-12T10:38:53;18.20;99.90
32476;DHT22;18929;48.008;10.882;2022-09-12T10:41:21;17.10;99.90
32476;DHT22;18929;48.008;10.882;2022-09-12T10:43:48;17.20;99.90
32476;DHT22;18929;48.008;10.882;2022-09-12T10:46:27;18.00;99.90
32476;DHT22;18929;48.008;10.882;2022-09-12T10:49:17;18.30;99.90
32476;DHT22;18929;48.008;10.882;2022-09-12T10:51:46;17.90;99.90
32476;DHT22;18929;48.008;10.882;2022-09-12T10:54:16;18.30;99.90
32476;DHT22;18929;48.008;10.882;2022-09-12T10:56:53;18.60;99.90
32476;DHT22;18929;48.008;10.882;2022-09-12T10:59:32;18.20;99.90
32476;DHT22;18929;48.008;10.882;2022-09-12T11:02:14;18.40;99.90
32476;DHT22;18929;48.008;10.882;2022-09-12T11:04:52;18.70;99.90
32476;DHT22;18929;48.008;10.882;2022-09-12T11:07:34;19.00;99.90
32476;DHT22;18929;48.008;10.882;2022-09-12T11:10:24;19.00;99.90
32476;DHT22;18929;48.008;10.882;2022-09-12T11:13:02;19.20;99.90
32476;DHT22;18929;48.008;10.882;2022-09-12T11:15:44;19.10;99.90
32476;DHT22;18929;48.008;10.882;2022-09-12T11:18:27;19.20;99.90
32476;DHT22;18929;48.008;10.882;2022-09-12T11:21:18;19.30;99.90
32476;DHT22;18929;48.008;10.882;2022-09-12T11:24:13;19.30;99.90
32476;DHT22;18929;48.008;10.882;2022-09-12T11:29:48;18.90;99.90
32476;DHT22;18929;48.008;10.882;2022-09-12T11:32:46;19.40;99.90
32476;DHT22;18929;48.008;10.882;2022-09-12T11:35:22;19.00;99.90
32476;DHT22;18929;48.008;10.882;2022-09-12T11:37:59;18.70;99.90
32476;DHT22;18929;48.008;10.882;2022-09-12T11:40:35;19.30;99.90
32476;DHT22;18929;48.008;10.882;2022-09-12T11:43:18;19.60;99.90
32476;DHT22;18929;48.008;10.882;2022-09-12T11:45:46;19.40;99.90
32476;DHT22;18929;48.008;10.882;2022-09-12T11:48:22;19.20;99.90
32476;DHT22;18929;48.008;10.882;2022-09-12T11:50:52;19.60;99.90
32476;DHT22;18929;48.008;10.882;2022-09-12T11:53:22;19.00;99.90
32476;DHT22;18929;48.008;10.882;2022-09-12T11:55:57;19.10;99.90
32476;DHT22;18929;48.008;10.882;2022-09-12T11:58:27;19.70;99.90
32476;DHT22;18929;48.008;10.882;2022-09-12T12:00:56;19.40;99.80
32476;DHT22;18929;48.008;10.882;2022-09-12T12:03:30;19.40;99.50
32476;DHT22;18929;48.008;10.882;2022-09-12T12:06:04;19.80;99.90
32476;DHT22;18929;48.008;10.882;2022-09-12T12:08:37;20.10;98.60
32476;DHT22;18929;48.008;10.882;2022-09-12T12:11:06;20.10;98.30
32476;DHT22;18929;48.008;10.882;2022-09-12T12:13:35;19.50;99.90
32476;DHT22;18929;48.008;10.882;2022-09-12T12:16:06;19.20;99.90
32476;DHT22;18929;48.008;10.882;2022-09-12T12:18:36;19.90;98.20
32476;DHT22;18929;48.008;10.882;2022-09-12T12:21:28;19.90;99.90
32476;DHT22;18929;48.008;10.882;2022-09-12T12:24:09;20.20;96.00
32476;DHT22;18929;48.008;10.882;2022-09-12T12:26:58;20.10;96.40
32476;DHT22;18929;48.008;10.882;2022-09-12T12:29:37;20.30;94.30
32476;DHT22;18929;48.008;10.882;2022-09-12T12:32:21;20.50;96.40
32476;DHT22;18929;48.008;10.882;2022-09-12T12:34:49;20.00;97.20
32476;DHT22;18929;48.008;10.882;2022-09-12T12:37:48;20.30;98.00
32476;DHT22;18929;48.008;10.882;2022-09-12T12:40:22;20.60;97.20
32476;DHT22;18929;48.008;10.882;2022-09-12T12:46:10;20.80;94.10
32476;DHT22;18929;48.008;10.882;2022-09-12T12:49:08;21.00;93.80
32476;DHT22;18929;48.008;10.882;2022-09-12T12:51:54;20.80;94.50
32476;DHT22;18929;48.008;10.882;2022-09-12T12:54:47;20.70;93.40
32476;DHT22;18929;48.008;10.882;2022-09-12T12:57:18;20.80;92.90
32476;DHT22;18929;48.008;10.882;2022-09-12T12:59:48;20.40;97.50
32476;DHT22;18929;48.008;10.882;2022-09-12T13:02:22;20.40;94.10
32476;DHT22;18929;48.008;10.882;2022-09-12T13:04:50;20.90;93.60
32476;DHT22;18929;48.008;10.882;2022-09-12T13:07:29;21.10;93.60
32476;DHT22;18929;48.008;10.882;2022-09-12T13:09:59;21.00;94.20
32476;DHT22;18929;48.008;10.882;2022-09-12T13:12:28;20.60;94.20
32476;DHT22;18929;48.008;10.882;2022-09-12T13:14:57;20.00;98.00
32476;DHT22;18929;48.008;10.882;2022-09-12T13:17:28;19.60;99.10
32476;DHT22;18929;48.008;10.882;2022-09-12T13:20:16;19.60;98.20
32476;DHT22;18929;48.008;10.882;2022-09-12T13:22:45;19.40;99.40
32476;DHT22;18929;48.008;10.882;2022-09-12T13:25:26;20.00;95.30
32476;DHT22;18929;48.008;10.882;2022-09-12T13:28:05;19.90;98.20
32476;DHT22;18929;48.008;10.882;2022-09-12T13:30:34;19.80;98.30
32476;DHT22;18929;48.008;10.882;2022-09-12T13:33:13;19.50;98.40
32476;DHT22;18929;48.008;10.882;2022-09-12T13:35:55;19.60;97.30
32476;DHT22;18929;48.008;10.882;2022-09-12T13:38:30;19.80;98.80
32476;DHT22;18929;48.008;10.882;2022-09-12T13:41:17;20.20;95.30
32476;DHT22;18929;48.008;10.882;2022-09-12T13:43:47;20.30;97.90
32476;DHT22;18929;48.008;10.882;2022-09-12T13:46:17;19.80;96.90
32476;DHT22;18929;48.008;10.882;2022-09-12T13:48:47;20.80;95.00
32476;DHT22;18929;48.008;10.882;2022-09-12T13:51:21;21.10;93.50
32476;DHT22;18929;48.008;10.882;2022-09-12T13:53:51;21.10;93.60
32476;DHT22;18929;48.008;10.882;2022-09-12T13:56:20;21.50;95.10
32476;DHT22;18929;48.008;10.882;2022-09-12T13:58:52;20.70;97.60
32476;DHT22;18929;48.008;10.882;2022-09-12T14:01:21;20.00;95.50
32476;DHT22;18929;48.008;10.882;2022-09-12T14:03:50;20.60;95.00
32476;DHT22;18929;48.008;10.882;2022-09-12T14:06:41;20.90;94.90
32476;DHT22;18929;48.008;10.882;2022-09-12T14:09:12;20.00;96.00
32476;DHT22;18929;48.008;10.882;2022-09-12T14:11:40;20.80;97.60
32476;DHT22;18929;48.008;10.882;2022-09-12T14:14:18;19.70;95.80
32476;DHT22;18929;48.008;10.882;2022-09-12T14:16:46;21.30;94.80
32476;DHT22;18929;48.008;10.882;2022-09-12T14:19:13;21.50;93.50
32476;DHT22;18929;48.008;10.882;2022-09-12T14:21:43;20.80;97.60
32476;DHT22;18929;48.008;10.882;2022-09-12T14:24:11;20.30;95.60
32476;DHT22;18929;48.008;10.882;2022-09-12T14:26:41;20.70;95.20
32476;DHT22;18929;48.008;10.882;2022-09-12T14:29:13;21.30;92.80
32476;DHT22;18929;48.008;10.882;2022-09-12T14:31:42;21.00;97.20
32476;DHT22;18929;48.008;10.882;2022-09-12T14:34:12;20.70;97.40
32476;DHT22;18929;48.008;10.882;2022-09-12T14:36:42;20.80;95.20
32476;DHT22;18929;48.008;10.882;2022-09-12T14:39:20;21.40;92.60
32476;DHT22;18929;48.008;10.882;2022-09-12T14:41:58;21.70;91.70
32476;DHT22;18929;48.008;10.882;2022-09-12T14:44:26;21.80;93.10
32476;DHT22;18929;48.008;10.882;2022-09-12T14:46:54;21.60;96.10
32476;DHT22;18929;48.008;10.882;2022-09-12T14:49:26;21.70;94.50
32476;DHT22;18929;48.008;10.882;2022-09-12T14:51:58;21.10;97.30
32476;DHT22;18929;48.008;10.882;2022-09-12T14:54:38;20.80;94.90
32476;DHT22;18929;48.008;10.882;2022-09-12T14:57:31;21.20;96.10
32476;DHT22;18929;48.008;10.882;2022-09-12T15:00:15;21.70;94.60
32476;DHT22;18929;48.008;10.882;2022-09-12T15:02:46;22.10;95.10
32476;DHT22;18929;48.008;10.882;2022-09-12T15:05:21;22.60;93.70
32476;DHT22;18929;48.008;10.882;2022-09-12T15:07:56;22.90;95.80
32476;DHT22;18929;48.008;10.882;2022-09-12T15:10:26;23.00;95.70
32476;DHT22;18929;48.008;10.882;2022-09-12T15:13:15;23.30;94.10
32476;DHT22;18929;48.008;10.882;2022-09-12T15:15:45;23.40;95.20
32476;DHT22;18929;48.008;10.882;2022-09-12T15:18:13;23.20;92.60
32476;DHT22;18929;48.008;10.882;2022-09-12T15:20:42;23.40;95.80
32476;DHT22;18929;48.008;10.882;2022-09-12T15:23:25;23.50;92.80
32476;DHT22;18929;48.008;10.882;2022-09-12T15:25:52;23.60;95.40
32476;DHT22;18929;48.008;10.882;2022-09-12T15:28:22;23.70;94.40
32476;DHT22;18929;48.008;10.882;2022-09-12T15:30:52;23.60;95.30
32476;DHT22;18929;48.008;10.882;2022-09-12T15:33:21;23.50;95.30
32476;DHT22;18929;48.008;10.882;2022-09-12T15:35:49;23.40;94.60
32476;DHT22;18929;48.008;10.882;2022-09-12T15:38:16;23.50;95.70
32476;DHT22;18929;48.008;10.882;2022-09-12T15:40:44;23.40;95.90
32476;DHT22;18929;48.008;10.882;2022-09-12T15:43:15;23.40;92.30
32476;DHT22;18929;48.008;10.882;2022-09-12T15:45:45;23.10;92.60
32476;DHT22;18929;48.008;10.882;2022-09-12T15:48:12;23.30;92.80
32476;DHT22;18929;48.008;10.882;2022-09-12T15:50:40;23.50;96.10
32476;DHT22;18929;48.008;10.882;2022-09-12T15:53:11;23.60;96.10
32476;DHT22;18929;48.008;10.882;2022-09-12T15:55:39;23.30;96.60
32476;DHT22;18929;48.008;10.882;2022-09-12T15:58:06;23.30;96.10
32476;DHT22;18929;48.008;10.882;2022-09-12T16:00:33;23.20;93.60